Terminal Aerodrome Forecast
Issued by NWS

Home | Current Version | Previous Version | Graphics & Text | Print | Product List | Glossary On
Versions: 1 2 3 4 5 6 7 8 9 10 11 12 13 14 15 16
000
FTUS43 KMPX 311253 AAA
TAFRNH
TAF AMD
KRNH 311253Z 3113/0112 20005KT 2SM BR OVC003
     FM311500 20011KT P6SM BKN008
     FM311600 20016G24KT P6SM SKC
     FM010000 19007KT P6SM SCT250
     FM010700 18004KT 4SM BR BKN250=

USA.gov is the U.S. government's official web portal to all federal, state and local government web resources and services.